?> Iberia Virtual Airlines

 METAR AND TAF INFORMATION
METAR FOR EGJJ
ADDS - METARS form results

(2214 UTC 17 November 2018)
Data provider http://aviationweather.gov/metar/data/
 
METAR text: EGJJ 172150Z AUTO 11020KT 9999 NCD 06/03 Q1021
Conditions at: EGJJ (JERSEY AIRPORT , GB) observed 2150 UTC 17 November 2018
Temperature: 6.0°C (43°F)
Dewpoint: 3.0°C (37°F) [RH = 81%]
Pressure (altimeter): 30.15 inches Hg (1021.0 mb)
Winds: from the ESE (110 degrees) at 23 MPH (20 knots; 10.3 m/s)
Visibility: 6 or more miles (10+ km)
Ceiling: at least 12,000 feet AGL
Clouds: sky clear below 12,000 feet AGL
Weather: no significant weather observed at this time

METAR text: EGJJ 172120Z AUTO 11021KT 9999 NCD 06/04 Q1021
Conditions at: EGJJ (JERSEY AIRPORT , GB) observed 2120 UTC 17 November 2018
Temperature: 6.0°C (43°F)
Dewpoint: 4.0°C (39°F) [RH = 87%]
Pressure (altimeter): 30.15 inches Hg (1021.0 mb)
Winds: from the ESE (110 degrees) at 24 MPH (21 knots; 10.8 m/s)
Visibility: 6 or more miles (10+ km)
Ceiling: at least 12,000 feet AGL
Clouds: sky clear below 12,000 feet AGL
Weather: no significant weather observed at this time

Forecast for: EGJJ (JERSEY AIRPORT , GB)
Text: TAF EGJJ 172000Z 1721/1806 10018G28KT 9999 FEW012
Forecast period: 2100 UTC 17 November 2018 to 0600 UTC 18 November 2018
Forecast type: FROM: standard forecast or significant change
Winds: from the E (100 degrees) at 21 MPH (18 knots; 9.3 m/s)
gusting to 32 MPH (28 knots; 14.4 m/s)
Visibility: 6 or more miles 10+ km)
Ceiling: at least 12,000 feet AGL
Clouds: few clouds at 1200 feet AGL
Weather: no significant weather forecast for this period
Text: PROB30 1721/1806 7000 BKN012
Forecast period: 2100 UTC 17 November 2018 to 0600 UTC 18 November 2018
Forecast type: PROBABLE: 30 percent likelihood of the following during this time
Visibility: 4 miles (7 km)
Ceiling: 1200 feet AGL
Clouds: broken clouds at 1200 feet AGL
Weather: no significant weather forecast for this period

 AIRPORT MAP

 RUNWAY INFORMATION
Runway 09 Runway length 5597 ft Runway width 151 ft
Runway elevation 270 ft Runway displaced threshold 200 ft Runway heading 83
Runway 27 Runway length 5597 ft Runway width 151 ft
Runway elevation 271 ft Runway displaced threshold 299 ft Runway heading 263

 AIRPORT FREQUENCIES
Type APP Name APP Frequency 120.3 MHZ
Type ATIS Name INFO Frequency 112.2 MHZ
Type GND Name GND Frequency 121.9 MHZ
Type RDR Name RDR Frequency 118.55 MHZ
Type TWR Name TWR Frequency 119.45 MHZ

 AIRPORT NEAR NAVIGATION AIDS
Type VOR-DME Name Jersey Frequency 112200 KHZ